createdAt,value
2023-01-29T00:02:24.122Z,30.85
2023-01-29T00:05:20.756Z,33.63
2023-01-29T00:08:00.478Z,32.80
2023-01-29T00:13:19.929Z,29.02
2023-01-29T00:16:03.312Z,29.83
2023-01-29T00:21:34.666Z,32.47
2023-01-29T00:24:05.292Z,30.77
2023-01-29T00:26:34.130Z,31.95
2023-01-29T00:29:02.847Z,29.25
2023-01-29T00:31:34.412Z,27.77
2023-01-29T00:34:09.083Z,32.10
2023-01-29T00:36:46.555Z,30.00
2023-01-29T00:39:33.726Z,30.38
2023-01-29T00:42:37.203Z,29.63
2023-01-29T00:45:35.860Z,31.88
2023-01-29T00:48:13.905Z,30.10
2023-01-29T00:50:49.057Z,29.13
2023-01-29T00:53:21.648Z,32.72
2023-01-29T00:58:39.123Z,31.38
2023-01-29T01:01:47.106Z,32.25
2023-01-29T01:04:24.845Z,34.00
2023-01-29T01:07:02.307Z,33.03
2023-01-29T01:09:51.344Z,29.83
2023-01-29T01:12:36.808Z,31.75
2023-01-29T01:15:13.124Z,32.83
2023-01-29T01:17:49.154Z,32.03
2023-01-29T01:20:24.148Z,30.48
2023-01-29T01:23:02.359Z,31.95
2023-01-29T01:25:37.202Z,28.85
2023-01-29T01:31:04.309Z,29.45
2023-01-29T01:33:41.119Z,29.30
2023-01-29T01:36:24.968Z,27.70
2023-01-29T01:39:00.831Z,28.38
2023-01-29T01:41:31.057Z,30.63
2023-01-29T01:44:06.061Z,34.95
2023-01-29T01:46:39.319Z,31.65
2023-01-29T01:49:19.919Z,30.75
2023-01-29T01:54:48.869Z,29.92
2023-01-29T01:57:36.870Z,28.77
2023-01-29T02:00:27.784Z,33.00
2023-01-29T02:06:12.957Z,29.23
2023-01-29T02:09:24.763Z,29.23
2023-01-29T02:11:52.100Z,31.40
2023-01-29T02:14:22.423Z,31.08
2023-01-29T02:17:11.601Z,29.00
2023-01-29T02:20:18.399Z,37.50
2023-01-29T02:23:02.725Z,28.50
2023-01-29T02:26:18.446Z,28.10
2023-01-29T02:29:35.807Z,30.83
2023-01-29T02:35:34.943Z,29.50
2023-01-29T02:39:05.318Z,32.42
2023-01-29T02:41:41.877Z,28.77
2023-01-29T02:44:35.697Z,31.63
2023-01-29T02:47:51.067Z,28.58
2023-01-29T02:50:57.835Z,28.98
2023-01-29T02:53:32.707Z,28.98
2023-01-29T02:56:10.368Z,28.90
2023-01-29T02:58:43.367Z,30.13
2023-01-29T03:01:36.251Z,32.72
2023-01-29T03:04:11.701Z,28.50
2023-01-29T03:07:04.292Z,31.40
2023-01-29T03:09:41.673Z,35.05
2023-01-29T03:12:35.411Z,34.28
2023-01-29T03:15:14.390Z,30.65
2023-01-29T03:18:05.155Z,30.08
2023-01-29T03:20:51.126Z,34.65
2023-01-29T03:23:46.039Z,32.70
2023-01-29T03:26:34.835Z,30.85
2023-01-29T03:29:28.251Z,30.95
2023-01-29T03:32:07.024Z,32.20
2023-01-29T03:34:54.853Z,33.28
2023-01-29T03:37:44.010Z,32.30
2023-01-29T03:40:22.076Z,30.77
2023-01-29T03:43:16.919Z,33.53
2023-01-29T03:45:57.260Z,31.85
2023-01-29T03:49:32.494Z,32.97
2023-01-29T03:52:24.724Z,33.08
2023-01-29T03:55:02.180Z,32.03
2023-01-29T03:57:38.686Z,33.63
2023-01-29T04:00:21.803Z,33.55
2023-01-29T04:03:02.338Z,32.90
2023-01-29T04:05:41.476Z,28.15
2023-01-29T04:08:32.820Z,33.17
2023-01-29T04:11:34.921Z,31.60
2023-01-29T04:14:23.096Z,29.48
2023-01-29T04:17:25.307Z,34.63
2023-01-29T04:20:02.900Z,32.03
2023-01-29T04:22:40.171Z,30.75
2023-01-29T04:25:18.429Z,32.00
2023-01-29T04:27:57.831Z,33.80
2023-01-29T04:30:53.669Z,26.60
2023-01-29T04:33:47.501Z,32.17
2023-01-29T04:36:41.983Z,32.38
2023-01-29T04:39:51.017Z,30.55
2023-01-29T04:42:45.125Z,27.77
2023-01-29T04:45:39.315Z,33.60
2023-01-29T04:48:33.775Z,33.55
2023-01-29T04:51:20.425Z,33.47
2023-01-29T04:53:59.673Z,31.60
2023-01-29T04:56:37.317Z,32.85
2023-01-29T04:59:17.463Z,29.27
2023-01-29T05:01:44.825Z,30.77
2023-01-29T05:04:16.545Z,33.95
2023-01-29T05:06:49.295Z,32.47
2023-01-29T05:09:17.660Z,34.22
2023-01-29T05:11:46.504Z,31.95
2023-01-29T05:14:19.819Z,31.45
2023-01-29T05:17:06.148Z,35.65
2023-01-29T05:19:32.890Z,32.08
2023-01-29T05:22:16.721Z,34.53
2023-01-29T05:25:04.316Z,30.98
2023-01-29T05:27:54.445Z,33.53
2023-01-29T05:30:27.692Z,33.13
2023-01-29T05:33:11.455Z,31.63
2023-01-29T05:35:38.442Z,34.15
2023-01-29T05:41:08.186Z,32.80
2023-01-29T05:43:44.050Z,32.30
2023-01-29T05:46:22.817Z,30.70
2023-01-29T05:48:49.603Z,35.75
2023-01-29T05:51:19.192Z,34.15
2023-01-29T05:53:48.930Z,31.10
2023-01-29T05:56:25.990Z,32.20
2023-01-29T05:59:04.425Z,31.35
2023-01-29T06:01:54.779Z,35.67
2023-01-29T06:04:43.084Z,31.40
2023-01-29T06:07:12.648Z,33.58
2023-01-29T06:09:39.405Z,33.72
2023-01-29T06:12:09.240Z,34.70
2023-01-29T06:14:45.895Z,31.83
2023-01-29T06:17:19.479Z,31.55
2023-01-29T06:19:57.849Z,31.48
2023-01-29T06:22:30.524Z,34.28
2023-01-29T06:25:02.694Z,35.08
2023-01-29T06:27:50.468Z,34.90
2023-01-29T06:30:17.723Z,29.83
2023-01-29T06:32:47.630Z,33.40
2023-01-29T06:35:14.541Z,36.90
2023-01-29T06:37:48.797Z,38.90
2023-01-29T06:40:27.809Z,32.38
2023-01-29T06:42:58.505Z,33.53
2023-01-29T06:45:27.624Z,31.35
2023-01-29T06:47:54.410Z,37.08
2023-01-29T06:50:25.241Z,33.80
2023-01-29T06:53:02.518Z,32.80
2023-01-29T06:55:37.981Z,32.88
2023-01-29T06:58:14.175Z,31.27
2023-01-29T07:00:43.286Z,29.90
2023-01-29T07:03:14.754Z,34.88
2023-01-29T07:05:46.859Z,33.58
2023-01-29T07:08:13.891Z,35.60
2023-01-29T07:10:51.817Z,34.13
2023-01-29T07:13:19.886Z,33.03
2023-01-29T07:15:47.603Z,33.75
2023-01-29T07:18:38.101Z,36.40
2023-01-29T07:21:13.463Z,34.05
2023-01-29T07:23:55.537Z,32.83
2023-01-29T07:26:22.274Z,35.17
2023-01-29T07:28:49.059Z,35.05
2023-01-29T07:31:22.277Z,33.78
2023-01-29T07:34:09.458Z,32.03
2023-01-29T07:36:37.697Z,36.85
2023-01-29T07:39:04.448Z,31.58
2023-01-29T07:41:34.052Z,32.80
2023-01-29T07:44:00.794Z,35.38
2023-01-29T07:46:39.543Z,34.15
2023-01-29T07:49:06.306Z,34.30
2023-01-29T07:51:50.545Z,35.40
2023-01-29T07:54:30.455Z,32.35
2023-01-29T07:57:00.352Z,38.67
2023-01-29T07:59:29.759Z,33.75
2023-01-29T08:02:10.206Z,35.67
2023-01-29T08:04:47.815Z,38.95
2023-01-29T08:07:37.716Z,33.92
2023-01-29T08:10:11.605Z,35.85
2023-01-29T08:12:49.569Z,36.15
2023-01-29T08:15:28.224Z,35.55
2023-01-29T08:18:35.545Z,33.88
2023-01-29T08:21:23.964Z,37.63
2023-01-29T08:23:55.491Z,35.88
2023-01-29T08:26:26.525Z,35.47
2023-01-29T08:28:57.217Z,34.80
2023-01-29T08:31:25.660Z,37.50
2023-01-29T08:33:58.957Z,37.05
2023-01-29T08:36:33.316Z,38.03
2023-01-29T08:39:29.250Z,34.75
2023-01-29T08:42:05.564Z,39.15
2023-01-29T08:44:42.053Z,37.80
2023-01-29T08:47:28.643Z,35.13
2023-01-29T08:52:37.789Z,35.25
2023-01-29T08:55:04.987Z,35.10
2023-01-29T08:57:32.226Z,36.33
2023-01-29T09:00:05.758Z,33.40
2023-01-29T09:02:48.707Z,33.13
2023-01-29T09:05:16.565Z,34.22
2023-01-29T09:07:54.290Z,35.20
2023-01-29T09:10:29.645Z,37.22
2023-01-29T09:12:56.477Z,35.92
2023-01-29T09:15:30.089Z,36.90
2023-01-29T09:18:16.541Z,34.97
2023-01-29T09:20:48.031Z,34.75
2023-01-29T09:23:21.368Z,39.42
2023-01-29T09:26:12.519Z,34.25
2023-01-29T09:28:51.881Z,42.40
2023-01-29T09:31:18.821Z,32.85
2023-01-29T09:34:08.978Z,31.55
2023-01-29T09:36:48.310Z,35.42
2023-01-29T09:39:18.243Z,36.33
2023-01-29T09:42:19.108Z,39.03
2023-01-29T09:45:17.683Z,37.05
2023-01-29T09:48:12.086Z,33.47
2023-01-29T09:50:51.835Z,38.65
2023-01-29T09:53:33.664Z,40.08
2023-01-29T09:56:29.098Z,33.90
2023-01-29T09:59:05.580Z,39.78
2023-01-29T10:01:40.523Z,35.10
2023-01-29T10:04:18.987Z,34.08
2023-01-29T10:07:10.485Z,33.42
2023-01-29T10:09:46.164Z,35.45
2023-01-29T10:12:42.711Z,35.63
2023-01-29T10:15:53.784Z,39.75
2023-01-29T10:19:05.997Z,38.92
2023-01-29T10:21:52.772Z,37.25
2023-01-29T10:24:40.472Z,38.95
2023-01-29T10:27:18.337Z,37.67
2023-01-29T10:29:56.597Z,33.60
2023-01-29T10:32:26.339Z,34.10
2023-01-29T10:35:00.083Z,36.13
2023-01-29T10:37:37.007Z,36.55
2023-01-29T10:40:22.781Z,32.13
2023-01-29T10:43:38.873Z,39.10
2023-01-29T10:46:46.203Z,36.78
2023-01-29T10:49:20.578Z,35.28
2023-01-29T10:52:24.619Z,37.38
2023-01-29T10:55:19.427Z,35.22
2023-01-29T10:58:16.160Z,38.33
2023-01-29T11:00:56.270Z,35.10
2023-01-29T11:03:31.251Z,37.20
2023-01-29T11:06:36.912Z,35.83
2023-01-29T11:09:21.846Z,34.67
2023-01-29T11:12:14.237Z,34.65
2023-01-29T11:15:20.381Z,35.15
2023-01-29T11:18:26.377Z,32.88
2023-01-29T11:21:04.822Z,32.33
2023-01-29T11:23:37.116Z,30.80
2023-01-29T11:26:11.566Z,32.13
2023-01-29T11:28:47.463Z,30.30
2023-01-29T11:31:35.562Z,32.78
2023-01-29T11:34:36.335Z,33.03
2023-01-29T11:37:43.108Z,32.10
2023-01-29T11:40:22.544Z,29.23
2023-01-29T11:42:56.887Z,33.15
2023-01-29T11:45:37.884Z,32.28
2023-01-29T11:48:15.973Z,33.88
2023-01-29T11:51:05.532Z,32.92
2023-01-29T11:53:41.565Z,35.42
2023-01-29T11:56:34.215Z,31.50
2023-01-29T11:59:11.042Z,29.45
2023-01-29T12:02:01.354Z,30.38
2023-01-29T12:04:39.757Z,30.15
2023-01-29T12:10:26.297Z,31.63
2023-01-29T12:13:21.510Z,24.83
2023-01-29T12:15:56.802Z,28.58
2023-01-29T12:19:21.125Z,29.35
2023-01-29T12:22:27.676Z,29.33
2023-01-29T12:25:33.580Z,26.75
2023-01-29T12:28:42.517Z,32.40
2023-01-29T12:31:46.356Z,25.00
2023-01-29T12:37:36.642Z,25.42
2023-01-29T12:40:30.630Z,26.88
2023-01-29T12:43:30.604Z,24.10
2023-01-29T12:46:17.548Z,22.27
2023-01-29T12:49:02.654Z,24.77
2023-01-29T12:51:51.882Z,23.60
2023-01-29T12:54:42.654Z,25.95
2023-01-29T12:57:37.340Z,23.75
2023-01-29T13:00:18.373Z,23.80
2023-01-29T13:03:46.526Z,23.80
2023-01-29T13:06:59.661Z,22.00
2023-01-29T13:09:34.372Z,20.35
2023-01-29T13:12:07.335Z,20.30
2023-01-29T13:15:23.690Z,20.55
2023-01-29T13:18:08.370Z,23.65
2023-01-29T13:20:42.659Z,19.20
2023-01-29T13:26:47.009Z,19.55
2023-01-29T13:29:35.850Z,19.10
2023-01-29T13:32:36.023Z,19.58
2023-01-29T13:35:28.849Z,18.27
2023-01-29T13:38:12.959Z,19.35
2023-01-29T13:40:45.065Z,17.38
2023-01-29T13:43:24.018Z,18.35
2023-01-29T13:45:53.881Z,15.80
2023-01-29T13:48:52.785Z,16.50
2023-01-29T13:51:32.263Z,16.55
2023-01-29T13:54:08.350Z,17.75
2023-01-29T13:56:44.447Z,14.88
2023-01-29T13:59:53.764Z,15.93
2023-01-29T14:02:45.713Z,19.00
2023-01-29T14:05:36.505Z,16.45
2023-01-29T14:08:13.676Z,16.88
2023-01-29T14:10:44.639Z,18.00
2023-01-29T14:13:39.775Z,15.60
2023-01-29T14:16:17.788Z,16.60
2023-01-29T14:19:14.217Z,18.10
2023-01-29T14:22:06.157Z,16.70
2023-01-29T14:24:56.333Z,16.95
2023-01-29T14:27:32.943Z,13.30
2023-01-29T14:30:22.299Z,17.17
2023-01-29T14:33:03.539Z,18.15
2023-01-29T14:35:41.196Z,17.92
2023-01-29T14:38:11.066Z,14.07
2023-01-29T14:40:42.672Z,16.08
2023-01-29T14:43:33.099Z,17.58
2023-01-29T14:46:33.447Z,18.27
2023-01-29T14:49:04.420Z,13.68
2023-01-29T14:52:04.996Z,16.73
2023-01-29T14:54:49.296Z,13.93
2023-01-29T14:57:44.582Z,14.93
2023-01-29T15:00:51.294Z,16.95
2023-01-29T15:03:44.522Z,17.63
2023-01-29T15:06:23.197Z,12.23
2023-01-29T15:09:02.938Z,15.98
2023-01-29T15:12:14.158Z,14.43
2023-01-29T15:14:55.971Z,18.05
2023-01-29T15:17:57.985Z,20.75
2023-01-29T15:20:37.497Z,15.73
2023-01-29T15:23:33.287Z,15.57
2023-01-29T15:26:11.716Z,17.13
2023-01-29T15:28:47.107Z,14.18
2023-01-29T15:31:18.737Z,13.02
2023-01-29T15:33:49.137Z,11.57
2023-01-29T15:36:34.508Z,19.35
2023-01-29T15:39:40.963Z,16.90
2023-01-29T15:42:25.979Z,17.77
2023-01-29T15:45:03.364Z,18.60
2023-01-29T15:47:37.678Z,18.67
2023-01-29T15:50:18.292Z,16.75
2023-01-29T15:52:58.313Z,19.95
2023-01-29T15:55:29.005Z,17.63
2023-01-29T15:57:56.248Z,16.38
2023-01-29T16:00:26.521Z,23.40
2023-01-29T16:02:53.848Z,19.48
2023-01-29T16:05:45.172Z,19.67
2023-01-29T16:08:24.867Z,18.45
2023-01-29T16:11:03.535Z,19.15
2023-01-29T16:13:48.368Z,19.92
2023-01-29T16:16:26.518Z,18.52
2023-01-29T16:19:00.749Z,21.77
2023-01-29T16:21:43.700Z,21.38
2023-01-29T16:24:27.365Z,19.92
2023-01-29T16:27:09.541Z,22.05
2023-01-29T16:29:49.551Z,18.70
2023-01-29T16:32:48.633Z,18.00
2023-01-29T16:35:23.667Z,22.00
2023-01-29T16:38:10.820Z,27.77
2023-01-29T16:40:46.059Z,22.15
2023-01-29T16:43:20.716Z,24.10
2023-01-29T16:46:04.563Z,23.08
2023-01-29T16:48:40.243Z,25.75
2023-01-29T16:51:25.853Z,24.20
2023-01-29T16:54:18.497Z,30.42
2023-01-29T16:56:52.918Z,24.60
2023-01-29T16:59:29.190Z,29.83
2023-01-29T17:02:04.539Z,27.63
2023-01-29T17:04:41.856Z,27.35
2023-01-29T17:07:28.933Z,32.08
2023-01-29T17:10:02.073Z,26.77
2023-01-29T17:12:39.691Z,30.50
2023-01-29T17:15:35.315Z,28.58
2023-01-29T17:18:02.910Z,30.35
2023-01-29T17:20:37.610Z,26.45
2023-01-29T17:23:15.494Z,30.33
2023-01-29T17:25:42.630Z,34.85
2023-01-29T17:28:19.056Z,27.83
2023-01-29T17:31:05.879Z,25.83
2023-01-29T17:33:42.573Z,26.90
2023-01-29T17:36:22.559Z,34.22
2023-01-29T17:38:49.601Z,32.33
2023-01-29T17:41:40.795Z,29.98
2023-01-29T17:44:10.519Z,31.65
2023-01-29T17:46:50.706Z,33.47
2023-01-29T17:49:29.056Z,26.75
2023-01-29T17:52:06.159Z,26.58
2023-01-29T17:54:34.925Z,37.03
2023-01-29T17:57:07.462Z,30.80
2023-01-29T18:02:29.760Z,37.67
2023-01-29T18:05:18.259Z,30.30
2023-01-29T18:07:55.136Z,26.73
2023-01-29T18:10:33.750Z,30.85
2023-01-29T18:13:04.237Z,28.95
2023-01-29T18:15:49.590Z,23.58
2023-01-29T18:18:34.099Z,26.52
2023-01-29T18:21:22.693Z,32.58
2023-01-29T18:23:51.678Z,27.05
2023-01-29T18:26:26.085Z,28.85
2023-01-29T18:28:52.942Z,28.30
2023-01-29T18:31:29.891Z,29.02
2023-01-29T18:33:58.769Z,28.15
2023-01-29T18:36:26.335Z,32.92
2023-01-29T18:39:05.813Z,27.17
2023-01-29T18:41:34.176Z,30.63
2023-01-29T18:44:04.012Z,31.25
2023-01-29T18:46:46.917Z,31.27
2023-01-29T18:49:53.111Z,28.92
2023-01-29T18:52:50.264Z,31.67
2023-01-29T18:55:21.268Z,33.30
2023-01-29T18:58:26.248Z,30.38
2023-01-29T19:03:27.065Z,29.33
2023-01-29T19:06:01.365Z,29.20
2023-01-29T19:08:28.569Z,31.35
2023-01-29T19:10:55.581Z,32.20
2023-01-29T19:13:27.296Z,43.53
2023-01-29T19:15:54.803Z,27.58
2023-01-29T19:18:21.819Z,31.13
2023-01-29T19:20:56.131Z,28.88
2023-01-29T19:23:28.457Z,37.22
2023-01-29T19:25:58.308Z,32.08
2023-01-29T19:28:38.193Z,29.23
2023-01-29T19:31:09.636Z,28.42
2023-01-29T19:33:46.053Z,33.85
2023-01-29T19:36:25.147Z,28.88
2023-01-29T19:39:03.783Z,33.95
2023-01-29T19:41:37.539Z,27.10
2023-01-29T19:44:06.842Z,29.98
2023-01-29T19:46:45.770Z,35.05
2023-01-29T19:49:13.294Z,32.90
2023-01-29T19:51:41.108Z,31.58
2023-01-29T19:54:12.955Z,32.85
2023-01-29T19:56:39.779Z,29.83
2023-01-29T19:59:15.860Z,28.60
2023-01-29T20:01:46.888Z,31.05
2023-01-29T20:04:19.287Z,29.23
2023-01-29T20:06:46.166Z,27.65
2023-01-29T20:09:16.555Z,27.52
2023-01-29T20:11:43.366Z,32.50
2023-01-29T20:14:13.129Z,32.45
2023-01-29T20:16:42.884Z,33.05
2023-01-29T20:19:14.195Z,32.03
2023-01-29T20:21:51.324Z,33.55
2023-01-29T20:24:25.220Z,31.42
2023-01-29T20:26:55.191Z,37.97
2023-01-29T20:29:38.493Z,42.20
2023-01-29T20:32:15.360Z,38.40
2023-01-29T20:34:53.446Z,36.53
2023-01-29T20:37:29.604Z,35.55
2023-01-29T20:39:56.554Z,32.90
2023-01-29T20:42:32.321Z,35.95
2023-01-29T20:45:05.925Z,36.65
2023-01-29T20:47:43.184Z,33.08
2023-01-29T20:50:11.875Z,32.08
2023-01-29T20:52:43.157Z,42.25
2023-01-29T20:55:14.232Z,33.28
2023-01-29T20:57:42.760Z,33.05
2023-01-29T21:00:15.700Z,29.05
2023-01-29T21:02:59.781Z,27.88
2023-01-29T21:05:30.730Z,29.70
2023-01-29T21:08:07.210Z,31.10
2023-01-29T21:10:35.651Z,32.30
2023-01-29T21:13:05.541Z,30.77
2023-01-29T21:15:35.534Z,33.63
2023-01-29T21:18:04.672Z,31.13
2023-01-29T21:20:31.964Z,35.00
2023-01-29T21:22:58.898Z,28.80
2023-01-29T21:25:25.732Z,29.23
2023-01-29T21:28:05.822Z,34.05
2023-01-29T21:30:36.328Z,29.90
2023-01-29T21:33:12.479Z,33.15
2023-01-29T21:35:45.247Z,32.42
2023-01-29T21:38:12.297Z,28.55
2023-01-29T21:40:50.722Z,28.65
2023-01-29T21:43:30.608Z,30.55
2023-01-29T21:46:08.600Z,27.10
2023-01-29T21:48:52.733Z,31.02
2023-01-29T21:54:12.839Z,27.60
2023-01-29T21:59:35.349Z,28.27
2023-01-29T22:02:03.634Z,31.00
2023-01-29T22:04:43.503Z,31.85
2023-01-29T22:07:17.028Z,31.48
2023-01-29T22:09:43.851Z,31.95
2023-01-29T22:12:12.328Z,33.70
2023-01-29T22:14:42.361Z,34.38
2023-01-29T22:17:19.641Z,32.58
2023-01-29T22:20:17.820Z,33.40
2023-01-29T22:23:05.254Z,35.78
2023-01-29T22:25:52.950Z,32.65
2023-01-29T22:28:32.438Z,35.70
2023-01-29T22:31:14.102Z,39.38
2023-01-29T22:33:41.914Z,35.58
2023-01-29T22:36:11.960Z,36.45
2023-01-29T22:38:48.840Z,35.85
2023-01-29T22:41:27.055Z,33.50
2023-01-29T22:43:53.949Z,35.08
2023-01-29T22:46:44.295Z,37.95
2023-01-29T22:49:13.762Z,35.47
2023-01-29T22:51:46.277Z,30.42
2023-01-29T22:54:14.181Z,34.22
2023-01-29T22:56:45.083Z,35.47
2023-01-29T22:59:14.109Z,36.05
2023-01-29T23:01:41.031Z,38.03
2023-01-29T23:04:18.182Z,30.95
2023-01-29T23:06:55.487Z,33.83
2023-01-29T23:09:46.951Z,31.80
2023-01-29T23:12:19.945Z,35.30
2023-01-29T23:14:46.899Z,31.65
2023-01-29T23:17:22.990Z,34.22
2023-01-29T23:20:01.422Z,177.98
2023-01-29T23:22:28.298Z,283.30
2023-01-29T23:25:05.250Z,115.50
2023-01-29T23:27:34.199Z,121.53
2023-01-29T23:30:03.489Z,78.53
2023-01-29T23:32:43.792Z,62.17
2023-01-29T23:35:10.735Z,51.97
2023-01-29T23:38:03.104Z,44.03
2023-01-29T23:40:39.987Z,36.88
2023-01-29T23:43:15.885Z,40.15
2023-01-29T23:45:45.723Z,40.08
2023-01-29T23:48:12.599Z,33.38
2023-01-29T23:50:42.505Z,30.35
2023-01-29T23:53:11.921Z,36.67
2023-01-29T23:55:38.782Z,33.22
2023-01-29T23:58:08.128Z,35.17
